Time;durP1;ratioP1;P1;durP2;ratioP2;P2;SDS_P1;SDS_P2;PMS_P1;PMS_P2;Temp;Humidity;BMP_temperature;BMP_pressure;BME280_temperature;BME280_humidity;BME280_pressure;Samples;Min_cycle;Max_cycle;Signal;HPM_P1;HPM_P2
2022/04/30 00:00:57;;;;;;;0.10;0.10;;;6.10;99.90;;;;;;5116664;28;20047;-81
2022/04/30 00:03:28;;;;;;;0.20;0.20;;;6.00;99.90;;;;;;5116430;28;20051;-80
2022/04/30 00:05:55;;;;;;;0.10;0.10;;;6.00;99.90;;;;;;5116076;28;20093;-80
2022/04/30 00:08:21;;;;;;;0.65;0.22;;;6.00;99.90;;;;;;5099016;28;20505;-80
2022/04/30 00:10:48;;;;;;;0.00;0.00;;;5.90;99.90;;;;;;5099338;28;20055;-80
2022/04/30 00:13:14;;;;;;;0.00;0.00;;;6.00;99.90;;;;;;5116245;28;20054;-81
2022/04/30 00:15:40;;;;;;;0.20;0.00;;;5.80;99.90;;;;;;5116569;28;20033;-80
2022/04/30 00:18:06;;;;;;;0.38;0.00;;;6.00;99.90;;;;;;5115552;28;20445;-81
2022/04/30 00:20:36;;;;;;;4.75;1.00;;;5.70;99.90;;;;;;5099018;28;20043;-80
2022/04/30 00:23:03;;;;;;;0.00;0.00;;;5.70;99.90;;;;;;5099123;28;20043;-80
2022/04/30 00:25:29;;;;;;;0.38;0.00;;;5.70;99.90;;;;;;5098970;28;20049;-81
2022/04/30 00:27:54;;;;;;;0.00;0.00;;;5.70;99.90;;;;;;5116297;28;20039;-80
2022/04/30 00:30:20;;;;;;;0.00;0.00;;;5.60;99.90;;;;;;5098833;28;20040;-80
2022/04/30 00:32:46;;;;;;;0.00;0.00;;;5.60;99.90;;;;;;5098980;28;20098;-80
2022/04/30 00:35:13;;;;;;;0.03;0.00;;;5.60;99.90;;;;;;5115513;28;20510;-80
2022/04/30 00:37:39;;;;;;;0.32;0.00;;;5.60;99.90;;;;;;5115849;28;20044;-80
2022/04/30 00:40:06;;;;;;;0.30;0.30;;;5.50;99.90;;;;;;5116254;28;20054;-80
2022/04/30 00:42:32;;;;;;;0.00;0.00;;;5.50;99.90;;;;;;5098616;28;20055;-80
2022/04/30 00:44:57;;;;;;;0.00;0.00;;;5.50;99.90;;;;;;5115609;28;20149;-80
2022/04/30 00:47:24;;;;;;;0.15;0.15;;;5.50;99.90;;;;;;5098870;28;20108;-80
2022/04/30 00:49:50;;;;;;;0.00;0.00;;;5.40;99.90;;;;;;5115361;28;20043;-80
2022/04/30 00:52:17;;;;;;;0.10;0.10;;;5.40;99.90;;;;;;5115138;28;20055;-80
2022/04/30 00:54:48;;;;;;;0.00;0.00;;;5.50;99.90;;;;;;5114347;28;20039;-80
2022/04/30 00:57:17;;;;;;;0.43;0.43;;;5.30;99.90;;;;;;5098335;28;20055;-80
2022/04/30 00:59:45;;;;;;;0.00;0.00;;;5.50;99.90;;;;;;5098407;28;20140;-80
2022/04/30 01:02:11;;;;;;;0.00;0.00;;;5.30;99.90;;;;;;5098237;28;20051;-80
2022/04/30 01:04:37;;;;;;;0.00;0.00;;;5.20;99.90;;;;;;5115517;28;20043;-80
2022/04/30 01:07:06;;;;;;;0.35;0.20;;;5.20;99.90;;;;;;5114763;28;20142;-80
2022/04/30 01:09:35;;;;;;;0.00;0.00;;;5.20;99.90;;;;;;5115109;28;20048;-80
2022/04/30 01:12:03;;;;;;;0.00;0.00;;;5.20;99.90;;;;;;5114733;28;20060;-80
2022/04/30 01:14:31;;;;;;;0.00;0.00;;;5.10;99.90;;;;;;5115120;28;20043;-80
2022/04/30 01:16:59;;;;;;;0.45;0.00;;;5.10;99.90;;;;;;5114788;28;20090;-80
2022/04/30 01:19:27;;;;;;;0.00;0.00;;;5.10;99.90;;;;;;5115061;28;20047;-80
2022/04/30 01:21:57;;;;;;;0.00;0.00;;;5.00;99.90;;;;;;5115077;28;20048;-80
2022/04/30 01:24:25;;;;;;;0.00;0.00;;;5.00;99.90;;;;;;5115103;28;20047;-80
2022/04/30 01:26:52;;;;;;;0.10;0.00;;;5.00;99.90;;;;;;5114876;28;20066;-80
2022/04/30 01:29:24;;;;;;;0.00;0.00;;;4.90;99.90;;;;;;5114345;28;20539;-80
2022/04/30 01:37:38;;;;;;;0.00;0.00;;;4.90;99.90;;;;;;5096241;28;20047;-80
2022/04/30 01:40:09;;;;;;;0.00;0.00;;;4.90;99.90;;;;;;5096522;28;20056;-80
2022/04/30 01:42:47;;;;;;;0.00;0.00;;;4.80;99.90;;;;;;5096297;28;20402;-80
2022/04/30 01:45:15;;;;;;;0.00;0.00;;;4.80;99.90;;;;;;5079506;28;20055;-80
2022/04/30 01:47:43;;;;;;;0.00;0.00;;;4.80;99.90;;;;;;5096644;28;20070;-80
2022/04/30 01:50:10;;;;;;;0.00;0.00;;;4.80;99.90;;;;;;5079586;28;20052;-80
2022/04/30 01:52:36;;;;;;;0.00;0.00;;;4.70;99.90;;;;;;5079309;28;20101;-80
2022/04/30 01:55:02;;;;;;;0.10;0.00;;;4.70;99.90;;;;;;5079784;28;20047;-80
2022/04/30 01:57:28;;;;;;;0.32;0.05;;;4.80;99.90;;;;;;5096205;28;20039;-80
2022/04/30 01:59:58;;;;;;;0.00;0.00;;;4.80;99.90;;;;;;5095935;28;20055;-80
2022/04/30 02:02:27;;;;;;;0.00;0.00;;;4.70;99.90;;;;;;5079065;28;20058;-80
2022/04/30 02:04:55;;;;;;;0.00;0.00;;;4.70;99.90;;;;;;5095102;28;20514;-80
2022/04/30 02:07:23;;;;;;;0.00;0.00;;;4.60;99.90;;;;;;5095101;28;20503;-80
2022/04/30 02:09:51;;;;;;;0.00;0.00;;;4.60;99.90;;;;;;5095804;28;20245;-80
2022/04/30 02:12:20;;;;;;;0.00;0.00;;;4.60;99.90;;;;;;5092883;28;20426;-80
2022/04/30 02:14:52;;;;;;;0.00;0.00;;;4.60;99.90;;;;;;5113721;28;20043;-80
2022/04/30 02:17:20;;;;;;;0.00;0.00;;;4.50;99.90;;;;;;5113454;28;20127;-80
2022/04/30 02:22:31;;;;;;;0.00;0.00;;;4.50;99.90;;;;;;5113854;28;20048;-80
2022/04/30 02:25:00;;;;;;;0.00;0.00;;;4.40;99.90;;;;;;5113743;28;20036;-80
2022/04/30 02:27:27;;;;;;;0.00;0.00;;;4.40;99.90;;;;;;5113770;28;20044;-80
2022/04/30 02:29:53;;;;;;;0.00;0.00;;;4.40;99.90;;;;;;5096664;28;20055;-80
2022/04/30 02:32:18;;;;;;;0.00;0.00;;;4.40;99.90;;;;;;5096298;28;20043;-80
2022/04/30 02:34:44;;;;;;;0.00;0.00;;;4.40;99.90;;;;;;5113704;28;20044;-80
2022/04/30 02:37:14;;;;;;;0.00;0.00;;;4.40;99.90;;;;;;5096323;28;20040;-81
2022/04/30 02:39:45;;;;;;;0.00;0.00;;;4.40;99.90;;;;;;5096475;28;20063;-80
2022/04/30 02:42:11;;;;;;;0.20;0.20;;;4.40;99.90;;;;;;5096505;28;20479;-80
2022/04/30 02:44:37;;;;;;;0.00;0.00;;;4.40;99.90;;;;;;5096033;28;20907;-80
2022/04/30 02:47:03;;;;;;;0.95;0.10;;;4.40;99.90;;;;;;5096312;28;20055;-80
2022/04/30 02:49:29;;;;;;;0.00;0.00;;;4.30;99.90;;;;;;5096177;28;20055;-81
2022/04/30 02:51:55;;;;;;;0.00;0.00;;;4.30;99.90;;;;;;5096644;28;20143;-80
2022/04/30 02:54:20;;;;;;;0.00;0.00;;;4.30;99.90;;;;;;5096500;28;20051;-80
2022/04/30 02:56:46;;;;;;;0.10;0.00;;;4.30;99.90;;;;;;5113037;28;20079;-80
2022/04/30 03:01:56;;;;;;;0.00;0.00;;;4.20;99.90;;;;;;5113269;28;20535;-81
2022/04/30 03:04:22;;;;;;;0.00;0.00;;;4.20;99.90;;;;;;5113128;28;20130;-80
2022/04/30 03:06:47;;;;;;;0.00;0.00;;;4.20;99.90;;;;;;5113247;28;20047;-80
2022/04/30 03:09:13;;;;;;;1.85;0.28;;;4.20;99.90;;;;;;5097094;28;20051;-80
2022/04/30 03:11:39;;;;;;;0.00;0.00;;;4.20;99.90;;;;;;5096657;28;20546;-80
2022/04/30 03:14:04;;;;;;;0.00;0.00;;;4.20;99.90;;;;;;5114066;28;20368;-80
2022/04/30 03:22:00;;;;;;;;;;;4.30;99.90;;;;;;5118225;28;20051;-80
2022/04/30 03:24:27;;;;;;;0.00;0.00;;;4.30;99.90;;;;;;5101094;28;20332;-80
2022/04/30 03:26:53;;;;;;;0.00;0.00;;;4.30;99.90;;;;;;5100706;28;20376;-80
2022/04/30 03:29:20;;;;;;;0.00;0.00;;;4.30;99.90;;;;;;5118062;28;20050;-80
2022/04/30 03:31:46;;;;;;;1.13;0.20;;;4.30;99.90;;;;;;5117703;28;20047;-80
2022/04/30 03:34:13;;;;;;;0.00;0.00;;;4.30;99.90;;;;;;5117404;28;20047;-80
2022/04/30 03:36:43;;;;;;;0.00;0.00;;;4.30;99.90;;;;;;5100773;28;20051;-81
2022/04/30 03:39:12;;;;;;;0.00;0.00;;;4.30;99.90;;;;;;5100536;28;20499;-80
2022/04/30 03:41:38;;;;;;;0.00;0.00;;;4.30;99.90;;;;;;5117398;28;20043;-80
2022/04/30 03:44:04;;;;;;;0.00;0.00;;;4.20;99.90;;;;;;5117595;28;20039;-80
2022/04/30 03:46:30;;;;;;;0.00;0.00;;;4.30;99.90;;;;;;5117448;28;20509;-80
2022/04/30 03:48:56;;;;;;;0.00;0.00;;;4.30;99.90;;;;;;5100535;28;20094;-80
2022/04/30 03:51:25;;;;;;;0.00;0.00;;;4.30;99.90;;;;;;5100149;28;20055;-80
2022/04/30 03:53:55;;;;;;;0.00;0.00;;;4.30;99.90;;;;;;5116796;28;20052;-80
2022/04/30 03:56:21;;;;;;;0.00;0.00;;;4.40;99.90;;;;;;5118001;28;20040;-81
2022/04/30 03:58:48;;;;;;;0.30;0.10;;;4.40;99.90;;;;;;5103950;28;20064;-80
2022/04/30 04:01:18;;;;;;;0.00;0.00;;;4.40;99.90;;;;;;5121469;28;20059;-80
2022/04/30 04:03:44;;;;;;;4.05;0.95;;;4.40;99.90;;;;;;5121873;28;20108;-81
2022/04/30 04:06:10;;;;;;;0.38;0.00;;;4.40;99.90;;;;;;5105158;28;20051;-80
2022/04/30 04:08:36;;;;;;;0.00;0.00;;;4.40;99.90;;;;;;5122235;28;20046;-80
2022/04/30 04:11:03;;;;;;;0.00;0.00;;;4.40;99.90;;;;;;5121947;28;20100;-81
2022/04/30 04:18:57;;;;;;;0.00;0.00;;;4.40;99.90;;;;;;5120464;28;20135;-82
2022/04/30 04:21:23;;;;;;;0.00;0.00;;;4.40;99.90;;;;;;5103325;28;20086;-80
2022/04/30 04:26:33;;;;;;;0.00;0.00;;;4.50;99.90;;;;;;5117424;28;20145;-80
2022/04/30 04:28:59;;;;;;;0.00;0.00;;;4.50;99.90;;;;;;5115734;28;20079;-81
2022/04/30 04:31:25;;;;;;;0.10;0.00;;;4.50;99.90;;;;;;5117026;28;20498;-81
2022/04/30 04:33:51;;;;;;;0.00;0.00;;;4.50;99.90;;;;;;5116840;28;20085;-81
2022/04/30 04:36:17;;;;;;;0.00;0.00;;;4.60;99.90;;;;;;5116422;28;20372;-81
2022/04/30 04:38:44;;;;;;;0.20;0.20;;;4.60;99.90;;;;;;5116640;28;20048;-81
2022/04/30 04:41:10;;;;;;;0.00;0.00;;;4.70;99.90;;;;;;5099144;28;20521;-80
2022/04/30 04:43:36;;;;;;;0.00;0.00;;;4.70;99.90;;;;;;5116418;28;20043;-80
2022/04/30 04:46:06;;;;;;;0.03;0.03;;;4.80;99.90;;;;;;5099317;28;20048;-81
2022/04/30 04:48:32;;;;;;;0.00;0.00;;;4.90;99.90;;;;;;5099402;28;20099;-81
2022/04/30 04:50:59;;;;;;;0.30;0.25;;;4.90;99.90;;;;;;5098692;28;20047;-81
2022/04/30 04:53:27;;;;;;;0.28;0.20;;;5.00;99.90;;;;;;5116441;28;20040;-80
2022/04/30 04:55:53;;;;;;;0.00;0.00;;;4.90;99.90;;;;;;5116028;28;20048;-81
2022/04/30 04:58:19;;;;;;;0.00;0.00;;;5.10;99.90;;;;;;5115400;28;20047;-80
2022/04/30 05:00:44;;;;;;;0.00;0.00;;;5.00;99.90;;;;;;5115629;28;20122;-81
2022/04/30 05:03:12;;;;;;;0.00;0.00;;;5.10;99.90;;;;;;5098995;28;20204;-81
2022/04/30 05:05:41;;;;;;;0.00;0.00;;;5.10;99.90;;;;;;5115706;28;20044;-81
2022/04/30 05:08:06;;;;;;;0.10;0.10;;;5.20;99.90;;;;;;5115536;28;20050;-81
2022/04/30 05:10:32;;;;;;;0.00;0.00;;;5.20;99.90;;;;;;5099024;28;20051;-81
2022/04/30 05:12:58;;;;;;;0.00;0.00;;;5.20;99.90;;;;;;5098756;28;20052;-81
2022/04/30 05:15:23;;;;;;;0.00;0.00;;;5.20;99.90;;;;;;5115422;28;20078;-81
2022/04/30 05:17:49;;;;;;;0.45;0.10;;;5.30;99.90;;;;;;5098480;28;20044;-81
2022/04/30 05:20:15;;;;;;;0.15;0.03;;;5.40;99.90;;;;;;5098353;28;20059;-82
2022/04/30 05:22:40;;;;;;;2.20;0.03;;;5.50;99.90;;;;;;5097848;28;20502;-81
2022/04/30 05:25:07;;;;;;;0.00;0.00;;;5.60;99.90;;;;;;5114594;28;20079;-81
2022/04/30 05:27:33;;;;;;;0.00;0.00;;;5.60;99.90;;;;;;5115275;28;20475;-81
2022/04/30 05:29:58;;;;;;;0.00;0.00;;;5.70;99.90;;;;;;5114678;28;20039;-81
2022/04/30 05:32:24;;;;;;;0.00;0.00;;;5.80;99.90;;;;;;5115101;28;20129;-81
2022/04/30 05:34:50;;;;;;;0.03;0.00;;;5.80;99.90;;;;;;5097951;28;20376;-80
2022/04/30 05:37:16;;;;;;;0.20;0.10;;;5.80;99.90;;;;;;5097703;28;20035;-80
2022/04/30 05:39:42;;;;;;;0.00;0.00;;;5.80;99.90;;;;;;5113911;28;20044;-80
2022/04/30 05:42:07;;;;;;;0.00;0.00;;;5.90;99.90;;;;;;5114687;28;20046;-80
2022/04/30 05:44:33;;;;;;;0.00;0.00;;;5.90;99.90;;;;;;5114600;28;20043;-81
2022/04/30 05:46:59;;;;;;;0.70;0.13;;;6.10;99.90;;;;;;5114518;28;20543;-80
2022/04/30 05:49:24;;;;;;;0.00;0.00;;;6.20;99.90;;;;;;5097755;28;20055;-81
2022/04/30 05:51:50;;;;;;;0.00;0.00;;;6.30;99.90;;;;;;5097517;28;20081;-80
2022/04/30 05:54:16;;;;;;;2.45;0.00;;;6.50;99.90;;;;;;5114268;28;20093;-81
2022/04/30 05:56:41;;;;;;;0.00;0.00;;;6.70;99.90;;;;;;5097258;28;20079;-81
2022/04/30 05:59:08;;;;;;;0.00;0.00;;;6.80;99.90;;;;;;5114211;28;20473;-81
2022/04/30 06:01:34;;;;;;;0.00;0.00;;;6.90;99.90;;;;;;5114654;28;20035;-81
2022/04/30 06:04:00;;;;;;;0.13;0.00;;;6.90;99.90;;;;;;5114283;28;20475;-81
2022/04/30 06:06:29;;;;;;;0.00;0.00;;;7.00;99.90;;;;;;5097205;28;20067;-80
2022/04/30 06:08:56;;;;;;;0.00;0.00;;;7.10;99.90;;;;;;5096811;28;20040;-82
2022/04/30 06:11:21;;;;;;;0.05;0.00;;;7.20;99.90;;;;;;5097161;28;20399;-80
2022/04/30 06:13:47;;;;;;;0.00;0.00;;;7.20;99.90;;;;;;5114386;28;20047;-81
2022/04/30 06:16:13;;;;;;;0.00;0.00;;;7.30;99.90;;;;;;5114096;28;20047;-81
2022/04/30 06:18:38;;;;;;;0.00;0.00;;;7.30;99.90;;;;;;5097036;28;20485;-81
2022/04/30 06:21:04;;;;;;;0.00;0.00;;;7.40;99.90;;;;;;5096795;28;20142;-80
2022/04/30 06:23:30;;;;;;;0.00;0.00;;;7.50;99.90;;;;;;5097285;28;20395;-81
2022/04/30 06:25:55;;;;;;;0.00;0.00;;;7.60;99.90;;;;;;5112978;28;20043;-81
2022/04/30 06:28:21;;;;;;;0.00;0.00;;;7.80;99.90;;;;;;5113744;28;20040;-81
2022/04/30 06:30:47;;;;;;;0.00;0.00;;;7.90;99.90;;;;;;5113808;28;20543;-81
2022/04/30 06:33:12;;;;;;;0.00;0.00;;;8.10;99.90;;;;;;5113623;28;20514;-81
2022/04/30 06:35:38;;;;;;;0.43;0.32;;;8.30;99.90;;;;;;5113597;28;20399;-81
2022/04/30 06:38:04;;;;;;;0.03;0.03;;;8.60;99.90;;;;;;5113021;28;20053;-81
2022/04/30 06:40:31;;;;;;;0.10;0.10;;;8.80;99.90;;;;;;5113650;28;20143;-80
2022/04/30 06:42:58;;;;;;;0.47;0.47;;;8.90;99.90;;;;;;5113500;28;20126;-81
2022/04/30 06:45:23;;;;;;;0.00;0.00;;;9.10;99.90;;;;;;5096590;28;20063;-81
2022/04/30 06:47:49;;;;;;;0.00;0.00;;;9.10;99.90;;;;;;5096581;28;20051;-81
2022/04/30 06:50:15;;;;;;;0.00;0.00;;;9.30;99.90;;;;;;5096219;28;20051;-80
2022/04/30 06:58:09;;;;;;;0.00;0.00;;;10.20;99.90;;;;;;5112653;28;20510;-80
2022/04/30 07:03:23;;;;;;;0.10;0.10;;;10.50;99.90;;;;;;5113396;28;20043;-80
2022/04/30 07:05:50;;;;;;;0.28;0.28;;;10.50;99.90;;;;;;5113223;28;20043;-80
2022/04/30 07:08:15;;;;;;;0.00;0.00;;;10.60;99.90;;;;;;5113576;28;20172;-80
2022/04/30 07:10:41;;;;;;;0.00;0.00;;;10.60;99.90;;;;;;5113041;28;20134;-80
2022/04/30 07:13:07;;;;;;;1.38;0.10;;;10.60;99.90;;;;;;5113080;28;20512;-80
2022/04/30 07:15:32;;;;;;;0.00;0.00;;;10.60;99.90;;;;;;5113045;28;20479;-80
2022/04/30 07:17:58;;;;;;;0.03;0.00;;;10.60;99.90;;;;;;5112683;28;20054;-80
2022/04/30 07:20:26;;;;;;;0.00;0.00;;;10.60;99.90;;;;;;5096215;28;20066;-81
2022/04/30 07:22:52;;;;;;;0.03;0.00;;;10.70;99.90;;;;;;5112698;28;20090;-79
2022/04/30 07:25:18;;;;;;;0.57;0.08;;;10.70;99.90;;;;;;5112927;28;20048;-79
2022/04/30 07:27:44;;;;;;;0.00;0.00;;;10.80;99.90;;;;;;5096037;28;20047;-81
2022/04/30 07:30:09;;;;;;;0.00;0.00;;;10.90;99.90;;;;;;5096116;28;20055;-81
2022/04/30 07:32:39;;;;;;;0.00;0.00;;;11.00;99.90;;;;;;5113481;28;20040;-82
2022/04/30 07:35:06;;;;;;;0.00;0.00;;;11.10;99.90;;;;;;5095986;28;20130;-79
2022/04/30 07:37:31;;;;;;;0.15;0.15;;;11.20;99.90;;;;;;5095629;28;20536;-79
2022/04/30 07:39:57;;;;;;;0.00;0.00;;;11.20;99.90;;;;;;5112743;28;20039;-81
2022/04/30 07:42:22;;;;;;;0.03;0.00;;;11.20;99.90;;;;;;5095938;28;20350;-81
2022/04/30 07:44:48;;;;;;;0.00;0.00;;;11.20;99.90;;;;;;5113136;28;20058;-81
2022/04/30 07:47:14;;;;;;;0.00;0.00;;;11.20;99.90;;;;;;5112626;28;20043;-81
2022/04/30 07:49:41;;;;;;;0.00;0.00;;;11.20;99.90;;;;;;5112890;28;20051;-81
2022/04/30 07:52:07;;;;;;;0.22;0.08;;;11.20;99.90;;;;;;5112752;28;20057;-81
2022/04/30 07:54:33;;;;;;;0.00;0.00;;;11.20;99.90;;;;;;5095825;28;20079;-81
2022/04/30 07:57:01;;;;;;;0.43;0.00;;;11.30;99.90;;;;;;5112341;28;20456;-81
2022/04/30 07:59:28;;;;;;;0.00;0.00;;;11.40;99.90;;;;;;5112357;28;20475;-82
2022/04/30 08:01:54;;;;;;;0.00;0.00;;;11.50;99.90;;;;;;5095849;28;20067;-82
2022/04/30 08:04:20;;;;;;;0.13;0.13;;;11.60;99.90;;;;;;5098395;28;20384;-82
2022/04/30 08:06:45;;;;;;;0.00;0.00;;;11.60;99.90;;;;;;5116766;28;20036;-82
2022/04/30 08:09:11;;;;;;;0.00;0.00;;;11.70;99.90;;;;;;5099623;28;20116;-82
2022/04/30 08:11:37;;;;;;;0.00;0.00;;;11.70;99.90;;;;;;5116262;28;20050;-81
2022/04/30 08:14:03;;;;;;;0.30;0.30;;;11.80;99.90;;;;;;5099309;28;20051;-81
2022/04/30 08:16:29;;;;;;;0.03;0.03;;;11.80;99.90;;;;;;5097691;28;20134;-81
2022/04/30 08:18:56;;;;;;;0.20;0.20;;;11.90;99.90;;;;;;5116111;28;20043;-81
2022/04/30 08:21:22;;;;;;;0.05;0.00;;;12.00;99.90;;;;;;5098826;28;20475;-82
2022/04/30 08:23:48;;;;;;;0.00;0.00;;;12.10;99.90;;;;;;5115982;28;20096;-82
2022/04/30 08:26:13;;;;;;;0.00;0.00;;;12.30;99.90;;;;;;5116015;28;20050;-81
2022/04/30 08:28:39;;;;;;;0.20;0.10;;;12.40;99.90;;;;;;5098665;28;20060;-81
2022/04/30 08:31:05;;;;;;;0.38;0.22;;;12.60;99.90;;;;;;5115998;28;20044;-81
2022/04/30 08:33:30;;;;;;;1.35;0.35;;;12.70;99.90;;;;;;5115733;28;20040;-81
2022/04/30 08:35:56;;;;;;;0.00;0.00;;;12.80;99.90;;;;;;5115439;28;20058;-82
2022/04/30 08:38:22;;;;;;;0.47;0.00;;;12.80;99.90;;;;;;5115287;28;20039;-81
2022/04/30 08:40:48;;;;;;;0.03;0.03;;;13.00;99.90;;;;;;5098709;28;20047;-86
2022/04/30 08:43:16;;;;;;;0.10;0.10;;;13.20;99.90;;;;;;5098047;28;20491;-83
2022/04/30 08:45:45;;;;;;;0.03;0.00;;;13.40;99.90;;;;;;5115582;28;20081;-85
2022/04/30 08:48:13;;;;;;;0.00;0.00;;;13.80;99.90;;;;;;5098529;28;20391;-80
2022/04/30 08:50:40;;;;;;;0.10;0.10;;;14.20;99.90;;;;;;5096634;28;20054;-79
2022/04/30 08:53:07;;;;;;;0.70;0.38;;;14.40;99.90;;;;;;5096407;28;20406;-80
2022/04/30 08:55:33;;;;;;;0.00;0.00;;;14.60;99.90;;;;;;5114427;28;20035;-80
2022/04/30 08:57:59;;;;;;;0.40;0.00;;;14.70;99.90;;;;;;5115635;28;20371;-80
2022/04/30 09:00:25;;;;;;;0.00;0.00;;;14.50;98.50;;;;;;5115635;28;20130;-80
2022/04/30 09:02:53;;;;;;;0.00;0.00;;;14.20;98.30;;;;;;5115244;28;20447;-80
2022/04/30 09:05:18;;;;;;;0.00;0.00;;;14.10;98.40;;;;;;5114688;28;20048;-80
2022/04/30 09:07:55;;;;;;;0.00;0.00;;;14.00;98.20;;;;;;5096571;28;20452;-80
2022/04/30 09:10:27;;;;;;;0.00;0.00;;;13.80;98.90;;;;;;5114877;28;20498;-80
2022/04/30 09:13:02;;;;;;;0.10;0.10;;;13.70;98.40;;;;;;5098572;28;20059;-80
2022/04/30 09:15:29;;;;;;;;;;;13.50;98.10;;;;;;5115194;28;20082;-80
2022/04/30 09:17:56;;;;;;;0.00;0.00;;;13.50;98.30;;;;;;5114794;28;20287;-80
2022/04/30 09:20:22;;;;;;;0.00;0.00;;;13.40;98.70;;;;;;5114945;28;20039;-80
2022/04/30 09:22:47;;;;;;;0.00;0.00;;;13.40;98.40;;;;;;5115687;28;20100;-80
2022/04/30 09:25:15;;;;;;;0.00;0.00;;;13.30;99.50;;;;;;5115529;28;20047;-80
2022/04/30 09:27:43;;;;;;;0.08;0.00;;;13.40;99.10;;;;;;5097665;28;20048;-80
2022/04/30 09:30:31;;;;;;;0.20;0.20;;;13.30;98.90;;;;;;5097809;28;20139;-80
2022/04/30 09:33:05;;;;;;;0.00;0.00;;;13.20;99.30;;;;;;5114817;28;20097;-80
2022/04/30 09:38:16;;;;;;;0.00;0.00;;;13.00;99.10;;;;;;5114634;28;20495;-80
2022/04/30 09:41:00;;;;;;;0.30;0.20;;;13.00;99.10;;;;;;5114560;28;20043;-80
2022/04/30 09:43:34;;;;;;;0.00;0.00;;;13.10;99.20;;;;;;5098245;28;20043;-80
2022/04/30 09:46:08;;;;;;;0.10;0.00;;;13.20;98.60;;;;;;5114712;28;20131;-80
2022/04/30 09:54:03;;;;;;;0.00;0.00;;;13.70;98.40;;;;;;5114672;28;20135;-80
2022/04/30 09:56:37;;;;;;;0.00;0.00;;;14.00;98.80;;;;;;5114828;28;20047;-80
2022/04/30 09:59:13;;;;;;;0.00;0.00;;;14.20;98.10;;;;;;5114100;28;20491;-80
2022/04/30 10:01:43;;;;;;;0.00;0.00;;;14.30;96.80;;;;;;5097499;28;20399;-80
2022/04/30 10:04:10;;;;;;;0.10;0.00;;;14.50;96.90;;;;;;5114013;28;20044;-80
2022/04/30 10:06:48;;;;;;;4.75;0.47;;;14.50;95.00;;;;;;5114155;28;20071;-80
2022/04/30 10:09:30;;;;;;;0.00;0.00;;;14.60;94.80;;;;;;5114446;28;20043;-80
2022/04/30 10:12:09;;;;;;;0.00;0.00;;;14.70;95.90;;;;;;5097216;28;20485;-80
2022/04/30 10:14:44;;;;;;;0.00;0.00;;;14.70;96.20;;;;;;5114503;28;20433;-80
2022/04/30 10:17:12;;;;;;;0.00;0.00;;;14.80;96.10;;;;;;5097744;28;20407;-80
2022/04/30 10:19:41;;;;;;;0.00;0.00;;;14.70;95.70;;;;;;5114163;28;20050;-80
2022/04/30 10:22:09;;;;;;;0.00;0.00;;;14.60;95.40;;;;;;5114020;28;20076;-80
2022/04/30 10:24:35;;;;;;;0.00;0.00;;;14.60;95.40;;;;;;5113865;28;20491;-80
2022/04/30 10:27:01;;;;;;;0.00;0.00;;;14.60;94.80;;;;;;5112821;28;20055;-80
2022/04/30 10:29:26;;;;;;;0.00;0.00;;;14.60;94.70;;;;;;5114005;28;20066;-80
2022/04/30 10:31:52;;;;;;;0.20;0.20;;;14.60;94.40;;;;;;5113800;28;20550;-80
2022/04/30 10:34:29;;;;;;;0.00;0.00;;;14.50;94.40;;;;;;5113839;28;20067;-80
2022/04/30 10:36:55;;;;;;;0.28;0.00;;;14.40;94.40;;;;;;5113850;28;20089;-80
2022/04/30 10:39:20;;;;;;;0.00;0.00;;;14.30;93.50;;;;;;5113542;28;20506;-80
2022/04/30 10:41:50;;;;;;;0.00;0.00;;;14.30;94.30;;;;;;5096607;28;20051;-80
2022/04/30 10:44:17;;;;;;;0.00;0.00;;;14.30;93.50;;;;;;5113620;28;20047;-80
2022/04/30 10:46:43;;;;;;;0.00;0.00;;;14.30;94.80;;;;;;5096322;28;20047;-80
2022/04/30 10:49:09;;;;;;;0.10;0.10;;;14.30;94.30;;;;;;5096771;28;20051;-80
2022/04/30 10:51:41;;;;;;;0.00;0.00;;;14.30;94.40;;;;;;5113615;28;20415;-80
2022/04/30 10:54:09;;;;;;;0.00;0.00;;;14.30;92.80;;;;;;5113287;28;20052;-80
2022/04/30 10:56:35;;;;;;;0.30;0.10;;;14.50;93.50;;;;;;5113200;28;20075;-80
2022/04/30 10:59:01;;;;;;;0.60;0.20;;;14.60;93.50;;;;;;5096130;28;20575;-80
2022/04/30 11:01:27;;;;;;;0.10;0.10;;;14.70;93.60;;;;;;5113343;28;20051;-81
2022/04/30 11:03:52;;;;;;;0.10;0.00;;;14.80;93.40;;;;;;5096359;28;20156;-80
2022/04/30 11:06:23;;;;;;;0.00;0.00;;;15.10;92.30;;;;;;5112994;28;20050;-80
2022/04/30 11:09:06;;;;;;;0.03;0.00;;;15.60;93.50;;;;;;5113685;28;20040;-80
2022/04/30 11:11:33;;;;;;;0.10;0.03;;;15.90;91.80;;;;;;5096055;28;20135;-80
2022/04/30 11:14:09;;;;;;;0.00;0.00;;;16.10;90.80;;;;;;5096045;28;20414;-80
2022/04/30 11:16:45;;;;;;;0.00;0.00;;;15.70;85.50;;;;;;5113015;28;20176;-80
2022/04/30 11:19:12;;;;;;;0.00;0.00;;;15.70;88.70;;;;;;5095928;28;20063;-80
2022/04/30 11:21:39;;;;;;;0.00;0.00;;;15.70;87.40;;;;;;5113387;28;20483;-80
2022/04/30 11:24:06;;;;;;;0.73;0.13;;;15.70;87.80;;;;;;5096191;28;20047;-80
2022/04/30 11:26:42;;;;;;;0.05;0.05;;;15.70;89.10;;;;;;5096055;28;20048;-80
2022/04/30 11:29:13;;;;;;;0.00;0.00;;;15.60;87.70;;;;;;5113300;28;20043;-80
2022/04/30 11:31:41;;;;;;;0.20;0.20;;;15.50;87.20;;;;;;5112923;28;20134;-80
2022/04/30 11:34:17;;;;;;;0.00;0.00;;;15.50;85.70;;;;;;5095701;28;20573;-80
2022/04/30 11:36:48;;;;;;;0.00;0.00;;;15.30;86.80;;;;;;5113332;28;20044;-80
2022/04/30 11:39:15;;;;;;;0.00;0.00;;;15.20;88.30;;;;;;5115831;28;20457;-80
2022/04/30 11:41:48;;;;;;;0.00;0.00;;;15.10;88.50;;;;;;5100025;28;20387;-80
2022/04/30 11:44:16;;;;;;;0.00;0.00;;;14.80;88.50;;;;;;5099899;28;20059;-80
2022/04/30 11:46:47;;;;;;;0.00;0.00;;;14.70;87.60;;;;;;5117054;28;20079;-80
2022/04/30 11:49:15;;;;;;;0.00;0.00;;;14.50;89.10;;;;;;5117412;28;20054;-80
2022/04/30 11:51:42;;;;;;;0.00;0.00;;;14.50;89.40;;;;;;5116994;28;20085;-80
2022/04/30 11:54:10;;;;;;;0.00;0.00;;;14.20;88.20;;;;;;5099925;28;20052;-80
2022/04/30 11:56:37;;;;;;;0.00;0.00;;;14.20;88.90;;;;;;5116244;28;20633;-80
2022/04/30 11:59:03;;;;;;;0.00;0.00;;;14.00;88.10;;;;;;5099393;28;20059;-80
2022/04/30 12:01:31;;;;;;;0.00;0.00;;;13.90;87.90;;;;;;5116499;28;20052;-80
2022/04/30 12:04:03;;;;;;;0.00;0.00;;;13.90;90.00;;;;;;5116609;28;20126;-80
2022/04/30 12:06:29;;;;;;;0.00;0.00;;;13.90;90.40;;;;;;5116596;28;20055;-80
2022/04/30 12:08:55;;;;;;;0.00;0.00;;;13.90;89.30;;;;;;5116277;28;20040;-79
2022/04/30 12:11:21;;;;;;;2.08;0.73;;;13.80;89.20;;;;;;5116122;28;20044;-80
2022/04/30 12:14:03;;;;;;;0.00;0.00;;;13.80;89.60;;;;;;5116478;28;20040;-79
2022/04/30 12:16:37;;;;;;;0.20;0.20;;;13.70;90.70;;;;;;5099472;28;20051;-79
2022/04/30 12:24:41;;;;;;;0.10;0.10;;;13.40;91.70;;;;;;5116570;28;20051;-79
2022/04/30 12:27:09;;;;;;;9.13;0.75;;;13.30;91.80;;;;;;5116724;28;20390;-80
2022/04/30 12:29:36;;;;;;;0.10;0.10;;;13.20;92.10;;;;;;5116255;28;20051;-80
2022/04/30 12:32:07;;;;;;;0.20;0.10;;;13.20;92.70;;;;;;5116014;28;20043;-79
2022/04/30 12:34:40;;;;;;;0.10;0.10;;;13.10;92.50;;;;;;5098774;28;20048;-80
2022/04/30 12:37:07;;;;;;;0.88;0.55;;;13.10;92.30;;;;;;5098832;28;20456;-79
2022/04/30 12:39:33;;;;;;;0.00;0.00;;;13.00;92.90;;;;;;5115824;28;20050;-79
2022/04/30 12:41:59;;;;;;;0.00;0.00;;;13.10;92.80;;;;;;5115731;28;20043;-79
2022/04/30 12:44:26;;;;;;;0.00;0.00;;;13.10;92.70;;;;;;5115819;28;20051;-80
2022/04/30 12:46:52;;;;;;;0.10;0.00;;;13.20;92.50;;;;;;5098497;28;20091;-80
2022/04/30 12:49:18;;;;;;;4.70;0.63;;;13.30;92.60;;;;;;5115023;28;20043;-79
2022/04/30 12:51:45;;;;;;;0.28;0.28;;;13.20;92.60;;;;;;5098444;28;20472;-79
2022/04/30 12:54:13;;;;;;;0.00;0.00;;;13.30;92.20;;;;;;5116000;28;20105;-79
2022/04/30 12:56:46;;;;;;;0.00;0.00;;;13.20;91.70;;;;;;5115486;28;20047;-80
2022/04/30 12:59:13;;;;;;;0.00;0.00;;;13.20;91.70;;;;;;5115205;28;20060;-79
2022/04/30 13:01:40;;;;;;;0.00;0.00;;;13.20;92.10;;;;;;5115777;28;20079;-79
2022/04/30 13:04:08;;;;;;;0.00;0.00;;;13.20;92.20;;;;;;5116525;28;20403;-80
2022/04/30 13:06:35;;;;;;;1.35;0.95;;;13.10;91.90;;;;;;5098411;28;20044;-79
2022/04/30 13:14:29;;;;;;;0.00;0.00;;;12.90;92.90;;;;;;5116005;28;20500;-79
2022/04/30 13:16:55;;;;;;;0.00;0.00;;;13.00;93.30;;;;;;5115608;28;20075;-79
2022/04/30 13:19:20;;;;;;;0.00;0.00;;;13.10;93.50;;;;;;5115588;28;20039;-79
2022/04/30 13:21:46;;;;;;;0.63;0.00;;;13.10;93.50;;;;;;5115302;28;20387;-79
2022/04/30 13:24:16;;;;;;;0.00;0.00;;;13.10;93.90;;;;;;5115047;28;20043;-79
2022/04/30 13:26:42;;;;;;;0.20;0.20;;;13.10;93.60;;;;;;5098180;28;20550;-79
2022/04/30 13:29:10;;;;;;;0.10;0.00;;;13.10;93.60;;;;;;5098310;28;20051;-79
2022/04/30 13:31:37;;;;;;;0.38;0.17;;;13.10;93.80;;;;;;5098030;28;20040;-79
2022/04/30 13:34:04;;;;;;;0.00;0.00;;;13.20;93.80;;;;;;5097921;28;20062;-80
2022/04/30 13:36:35;;;;;;;0.00;0.00;;;13.10;93.50;;;;;;5114977;28;20054;-79
2022/04/30 13:39:01;;;;;;;0.50;0.20;;;13.10;93.90;;;;;;5098501;28;20060;-79
2022/04/30 13:41:28;;;;;;;0.00;0.00;;;13.10;93.70;;;;;;5115202;28;20390;-79
2022/04/30 13:43:53;;;;;;;0.00;0.00;;;13.00;94.10;;;;;;5097874;28;20051;-79
2022/04/30 13:46:20;;;;;;;0.03;0.00;;;13.10;94.10;;;;;;5114950;28;20484;-79